Time;durP1;ratioP1;P1;durP2;ratioP2;P2;SDS_P1;SDS_P2;PMS_P1;PMS_P2;Temp;Humidity;BMP_temperature;BMP_pressure;BME280_temperature;BME280_humidity;BME280_pressure;Samples;Min_cycle;Max_cycle;Signal;HPM_P1;HPM_P2
2023/01/20 00:00:40;;;;;;;3.30;2.47;;;-0.60;99.90;;;;;;4993116;28;20056;-61
2023/01/20 00:03:06;;;;;;;6.18;2.63;;;-0.60;99.90;;;;;;4984675;28;20046;-60
2023/01/20 00:05:32;;;;;;;3.88;2.28;;;-0.60;99.90;;;;;;5002214;28;20384;-61
2023/01/20 00:07:58;;;;;;;5.07;2.22;;;-0.60;99.90;;;;;;5001557;28;20049;-60
2023/01/20 00:10:23;;;;;;;4.72;2.50;;;-0.70;99.90;;;;;;5002687;28;20061;-60
2023/01/20 00:12:49;;;;;;;4.03;2.47;;;-0.70;99.90;;;;;;4997425;28;20041;-60
2023/01/20 00:15:15;;;;;;;7.57;2.88;;;-0.70;99.90;;;;;;5001471;28;20050;-59
2023/01/20 00:17:41;;;;;;;6.30;2.75;;;-0.70;99.90;;;;;;4995470;28;20121;-60
2023/01/20 00:20:07;;;;;;;3.72;2.80;;;-0.60;99.90;;;;;;5006878;28;20048;-59
2023/01/20 00:22:33;;;;;;;5.07;2.70;;;-0.70;99.90;;;;;;5043267;28;20048;-60
2023/01/20 00:24:59;;;;;;;5.80;2.80;;;-0.70;99.90;;;;;;5013016;28;20045;-59
2023/01/20 00:27:25;;;;;;;6.53;2.90;;;-0.70;99.90;;;;;;5039841;28;20140;-60
2023/01/20 00:29:51;;;;;;;3.90;2.58;;;-0.70;99.90;;;;;;5032844;28;20057;-60
2023/01/20 00:32:16;;;;;;;5.15;2.72;;;-0.70;99.90;;;;;;5039983;28;20114;-60
2023/01/20 00:34:42;;;;;;;4.20;2.33;;;-0.70;99.90;;;;;;5028093;28;20044;-61
2023/01/20 00:37:08;;;;;;;4.57;2.67;;;-0.70;99.90;;;;;;5029058;28;20041;-60
2023/01/20 00:39:34;;;;;;;5.03;2.60;;;-0.80;99.90;;;;;;5020056;28;20037;-60
2023/01/20 00:42:00;;;;;;;4.38;2.78;;;-0.80;99.90;;;;;;5007026;28;20049;-60
2023/01/20 00:44:25;;;;;;;4.18;2.78;;;-0.80;99.90;;;;;;5033274;28;20077;-61
2023/01/20 00:46:51;;;;;;;6.20;2.53;;;-0.80;99.90;;;;;;5023477;28;20049;-61
2023/01/20 00:49:17;;;;;;;5.32;2.80;;;-0.80;99.90;;;;;;5027703;28;20049;-59
2023/01/20 00:51:43;;;;;;;6.57;2.83;;;-0.80;99.90;;;;;;5021032;28;20742;-60
2023/01/20 00:54:08;;;;;;;5.80;2.85;;;-0.80;99.90;;;;;;5027516;28;20044;-60
2023/01/20 00:56:34;;;;;;;3.70;2.97;;;-0.90;99.90;;;;;;5044435;28;20049;-60
2023/01/20 00:59:00;;;;;;;4.70;3.42;;;-0.90;99.90;;;;;;5016306;28;20131;-59
2023/01/20 01:01:26;;;;;;;6.15;3.63;;;-0.90;99.90;;;;;;5010499;28;20045;-60
2023/01/20 01:03:55;;;;;;;7.07;3.63;;;-0.90;99.90;;;;;;5045073;28;20045;-59
2023/01/20 01:06:22;;;;;;;8.20;4.28;;;-0.90;99.90;;;;;;5024708;28;20044;-60
2023/01/20 01:08:48;;;;;;;6.95;4.72;;;-0.90;99.90;;;;;;5045509;28;20075;-61
2023/01/20 01:11:14;;;;;;;7.40;5.43;;;-0.90;99.90;;;;;;5040599;28;20033;-59
2023/01/20 01:13:40;;;;;;;14.27;6.65;;;-0.90;99.90;;;;;;5028067;28;20053;-60
2023/01/20 01:16:14;;;;;;;12.10;7.78;;;-0.80;99.90;;;;;;5022923;28;20136;-60
2023/01/20 01:18:40;;;;;;;18.35;9.20;;;-0.80;99.90;;;;;;5041855;28;20399;-59
2023/01/20 01:21:21;;;;;;;26.75;10.43;;;-0.80;99.90;;;;;;4986618;28;20063;-60
2023/01/20 01:23:47;;;;;;;29.20;11.45;;;-0.70;99.90;;;;;;4988141;28;20102;-61
2023/01/20 01:26:13;;;;;;;46.10;12.23;;;-0.70;99.90;;;;;;5001494;28;20046;-59
2023/01/20 01:28:39;;;;;;;45.28;14.32;;;-0.70;99.90;;;;;;5004662;28;20069;-60
2023/01/20 01:31:06;;;;;;;61.80;16.52;;;-0.60;99.90;;;;;;5000909;28;20041;-59
2023/01/20 01:33:33;;;;;;;39.67;14.95;;;-0.60;99.90;;;;;;4966276;28;20443;-60
2023/01/20 01:36:01;;;;;;;53.08;15.65;;;-0.60;99.90;;;;;;5001108;28;20054;-59
2023/01/20 01:38:27;;;;;;;55.85;14.50;;;-0.50;99.90;;;;;;5005016;28;20073;-59
2023/01/20 01:40:54;;;;;;;64.63;14.18;;;-0.50;99.90;;;;;;5000939;28;20068;-60
2023/01/20 01:43:23;;;;;;;30.30;13.10;;;-0.50;99.90;;;;;;4987762;28;20050;-59
2023/01/20 01:45:49;;;;;;;59.63;16.05;;;-0.40;99.90;;;;;;5000602;28;20049;-60
2023/01/20 01:48:16;;;;;;;75.15;17.60;;;-0.40;99.90;;;;;;5002845;28;20499;-60
2023/01/20 01:50:53;;;;;;;48.10;16.27;;;-0.40;99.90;;;;;;5005545;28;20057;-61
2023/01/20 01:53:19;;;;;;;44.97;15.65;;;-0.40;99.90;;;;;;5007369;28;20065;-59
2023/01/20 01:55:52;;;;;;;55.20;15.82;;;-0.40;99.90;;;;;;5019857;28;20064;-60
2023/01/20 01:58:22;;;;;;;35.53;15.32;;;-0.40;99.90;;;;;;5004951;28;20052;-60
2023/01/20 02:00:48;;;;;;;33.20;16.27;;;-0.40;99.90;;;;;;5001967;28;20156;-60
2023/01/20 02:03:14;;;;;;;28.90;14.90;;;-0.40;99.90;;;;;;5006624;28;20073;-59
2023/01/20 02:05:41;;;;;;;29.23;15.15;;;-0.40;99.90;;;;;;5008433;28;20077;-59
2023/01/20 02:08:08;;;;;;;25.73;14.23;;;-0.40;99.90;;;;;;5006776;28;20042;-60
2023/01/20 02:10:34;;;;;;;29.10;14.90;;;-0.40;99.90;;;;;;5001538;28;20054;-61
2023/01/20 02:13:00;;;;;;;23.50;13.38;;;-0.40;99.90;;;;;;5006486;28;20049;-59
2023/01/20 02:15:53;;;;;;;26.55;13.30;;;-0.40;99.90;;;;;;5002774;28;20064;-61
2023/01/20 02:18:36;;;;;;;22.55;12.95;;;-0.40;99.90;;;;;;5005589;28;20038;-60
2023/01/20 02:21:11;;;;;;;22.83;12.25;;;-0.40;99.90;;;;;;5024832;28;20053;-59
2023/01/20 02:24:06;;;;;;;25.00;12.73;;;-0.40;99.90;;;;;;5049060;28;20041;-59
2023/01/20 02:27:12;;;;;;;21.48;12.23;;;-0.40;99.90;;;;;;5008812;28;20084;-60
2023/01/20 02:30:03;;;;;;;21.77;11.63;;;-0.50;99.90;;;;;;5027655;28;20059;-60
2023/01/20 02:32:56;;;;;;;20.88;10.85;;;-0.40;99.90;;;;;;5044535;28;20499;-59
2023/01/20 02:35:34;;;;;;;18.63;11.52;;;-0.50;99.90;;;;;;5036995;28;20690;-61
2023/01/20 02:38:19;;;;;;;19.35;10.98;;;-0.50;99.90;;;;;;5044975;28;20064;-60
2023/01/20 02:41:22;;;;;;;18.65;11.63;;;-0.50;99.90;;;;;;5016733;28;20053;-60
2023/01/20 02:43:52;;;;;;;20.77;11.40;;;-0.50;99.90;;;;;;5029160;28;20391;-59
2023/01/20 02:46:32;;;;;;;20.60;10.98;;;-0.50;99.90;;;;;;5026670;28;20042;-59
2023/01/20 02:49:19;;;;;;;20.23;11.52;;;-0.60;99.90;;;;;;5046767;28;20045;-60
2023/01/20 02:52:13;;;;;;;18.20;11.15;;;-0.60;99.90;;;;;;5025635;28;20120;-61
2023/01/20 02:54:43;;;;;;;22.80;11.88;;;-0.60;99.90;;;;;;5005680;28;20102;-59
2023/01/20 02:57:14;;;;;;;19.75;11.23;;;-0.60;99.90;;;;;;5042060;28;20041;-59
2023/01/20 02:59:44;;;;;;;17.80;11.15;;;-0.60;99.90;;;;;;5047572;28;20044;-59
2023/01/20 03:02:15;;;;;;;19.08;11.45;;;-0.60;99.90;;;;;;5044835;28;20211;-60
2023/01/20 03:04:50;;;;;;;20.40;12.57;;;-0.60;99.90;;;;;;5029603;28;20491;-60
2023/01/20 03:07:21;;;;;;;20.58;11.65;;;-0.60;99.90;;;;;;5022561;28;20114;-60
2023/01/20 03:09:50;;;;;;;19.70;12.27;;;-0.60;99.90;;;;;;5027189;28;20045;-60
2023/01/20 03:12:22;;;;;;;23.05;13.23;;;-0.60;99.90;;;;;;5047688;28;20116;-59
2023/01/20 03:14:50;;;;;;;21.35;13.70;;;-0.60;99.90;;;;;;5048790;28;20497;-60
2023/01/20 03:17:17;;;;;;;22.05;13.15;;;-0.60;99.90;;;;;;5027187;28;20128;-60
2023/01/20 03:19:43;;;;;;;23.35;13.88;;;-0.60;99.90;;;;;;5030514;28;20052;-59
2023/01/20 03:22:09;;;;;;;23.75;13.73;;;-0.60;99.90;;;;;;5021437;28;20057;-61
2023/01/20 03:24:37;;;;;;;21.58;14.10;;;-0.60;99.90;;;;;;5048326;28;20052;-60
2023/01/20 03:27:04;;;;;;;20.52;13.82;;;-0.60;99.90;;;;;;5041971;28;20045;-60
2023/01/20 03:29:30;;;;;;;23.88;14.00;;;-0.60;99.90;;;;;;5045247;28;20133;-60
2023/01/20 03:31:58;;;;;;;24.15;14.27;;;-0.60;99.90;;;;;;4993266;28;20040;-60
2023/01/20 03:34:26;;;;;;;25.42;15.30;;;-0.60;99.90;;;;;;5027085;28;20092;-61
2023/01/20 03:36:53;;;;;;;29.25;16.27;;;-0.60;99.90;;;;;;5046537;28;20048;-59
2023/01/20 03:39:21;;;;;;;29.40;17.27;;;-0.60;99.90;;;;;;5028326;28;20045;-60
2023/01/20 03:42:06;;;;;;;29.38;16.85;;;-0.50;99.90;;;;;;5045430;28;20940;-60
2023/01/20 03:44:54;;;;;;;31.23;17.35;;;-0.50;99.90;;;;;;5026918;28;20132;-60
2023/01/20 03:48:04;;;;;;;33.30;17.65;;;-0.40;99.90;;;;;;5041985;28;20546;-60
2023/01/20 03:50:43;;;;;;;38.08;19.42;;;-0.40;99.90;;;;;;4972348;28;20114;-59
2023/01/20 03:53:45;;;;;;;37.78;19.25;;;-0.40;99.90;;;;;;5047020;28;20449;-61
2023/01/20 03:56:27;;;;;;;42.77;20.30;;;-0.40;99.90;;;;;;5040672;28;20600;-59
2023/01/20 03:58:54;;;;;;;43.15;21.90;;;-0.30;99.90;;;;;;4986385;28;20499;-59
2023/01/20 04:01:27;;;;;;;48.80;22.63;;;-0.30;99.90;;;;;;5039807;28;20136;-60
2023/01/20 04:03:54;;;;;;;55.72;23.70;;;-0.30;99.90;;;;;;5022495;28;20041;-60
2023/01/20 04:06:25;;;;;;;55.35;23.88;;;-0.30;99.90;;;;;;5012970;28;20391;-60
2023/01/20 04:08:55;;;;;;;49.17;23.17;;;-0.20;99.90;;;;;;5047648;28;20112;-59
2023/01/20 04:11:21;;;;;;;59.40;25.17;;;-0.20;99.90;;;;;;5043201;28;20083;-59
2023/01/20 04:13:48;;;;;;;50.25;23.42;;;-0.20;99.90;;;;;;5047066;28;20063;-61
2023/01/20 04:16:16;;;;;;;49.22;22.10;;;-0.10;99.90;;;;;;5043743;28;20463;-60
2023/01/20 04:18:45;;;;;;;43.83;20.73;;;0.00;99.90;;;;;;5047010;28;20304;-60
2023/01/20 04:21:36;;;;;;;45.58;20.75;;;-0.10;99.90;;;;;;5027455;28;20071;-61
2023/01/20 04:24:06;;;;;;;43.22;20.80;;;-0.10;99.90;;;;;;5029419;28;20060;-61
2023/01/20 04:26:32;;;;;;;47.22;21.63;;;-0.10;99.90;;;;;;5041110;28;20075;-59
2023/01/20 04:28:58;;;;;;;42.50;20.40;;;-0.10;99.90;;;;;;5045543;28;20073;-60
2023/01/20 04:31:24;;;;;;;50.15;22.23;;;-0.10;99.90;;;;;;5042589;28;20069;-60
2023/01/20 04:33:49;;;;;;;56.33;22.55;;;-0.10;99.90;;;;;;5026085;28;20666;-61
2023/01/20 04:36:15;;;;;;;56.05;21.90;;;-0.10;99.90;;;;;;5028877;28;20041;-59
2023/01/20 04:38:41;;;;;;;46.22;21.67;;;-0.10;99.90;;;;;;5025578;28;20055;-60
2023/01/20 04:41:10;;;;;;;46.67;21.38;;;-0.10;99.90;;;;;;5008654;28;20403;-61
2023/01/20 04:43:36;;;;;;;48.90;21.73;;;-0.10;99.90;;;;;;5043393;28;20415;-60
2023/01/20 04:46:02;;;;;;;47.05;20.98;;;-0.10;99.90;;;;;;5000576;28;20056;-59
2023/01/20 04:48:28;;;;;;;43.92;20.35;;;-0.10;99.90;;;;;;5043900;28;20101;-60
2023/01/20 04:50:54;;;;;;;38.63;19.45;;;-0.10;99.90;;;;;;5027157;28;20076;-61
2023/01/20 04:53:20;;;;;;;41.72;19.50;;;-0.10;99.90;;;;;;5045494;28;20129;-62
2023/01/20 04:55:46;;;;;;;45.80;20.08;;;-0.10;99.90;;;;;;5042875;28;20045;-61
2023/01/20 04:58:11;;;;;;;41.08;20.52;;;-0.10;99.90;;;;;;5010737;28;20045;-60
2023/01/20 05:00:37;;;;;;;40.80;19.17;;;-0.10;99.90;;;;;;5025426;28;20059;-60
2023/01/20 05:03:04;;;;;;;39.83;19.48;;;-0.10;99.90;;;;;;5044503;28;20052;-59
2023/01/20 05:05:30;;;;;;;39.17;18.35;;;-0.10;99.90;;;;;;5021528;28;20183;-60
2023/01/20 05:07:56;;;;;;;37.35;18.63;;;-0.10;99.90;;;;;;5018321;28;20135;-60
2023/01/20 05:10:22;;;;;;;43.10;20.00;;;-0.10;99.90;;;;;;5010143;28;20036;-60
2023/01/20 05:12:48;;;;;;;38.20;19.40;;;-0.10;99.90;;;;;;5028602;28;20516;-59
2023/01/20 05:15:14;;;;;;;35.88;17.58;;;-0.10;99.90;;;;;;4993330;28;20048;-60
2023/01/20 05:17:39;;;;;;;38.97;18.02;;;-0.10;99.90;;;;;;5040385;28;20041;-60
2023/01/20 05:20:06;;;;;;;40.70;18.33;;;-0.10;99.90;;;;;;5045022;28;20048;-60
2023/01/20 05:22:34;;;;;;;38.53;18.40;;;-0.20;99.90;;;;;;5041976;28;20120;-59
2023/01/20 05:25:00;;;;;;;40.40;18.50;;;-0.10;99.90;;;;;;5025752;28;20083;-59
2023/01/20 05:27:26;;;;;;;37.38;17.75;;;-0.10;99.90;;;;;;5024918;28;20365;-60
2023/01/20 05:29:52;;;;;;;45.55;18.63;;;-0.20;99.90;;;;;;5044152;28;20103;-60
2023/01/20 05:32:17;;;;;;;39.53;17.70;;;-0.10;99.90;;;;;;5026349;28;20522;-60
2023/01/20 05:34:43;;;;;;;40.70;18.67;;;-0.10;99.90;;;;;;5027569;28;20506;-60
2023/01/20 05:37:09;;;;;;;36.85;18.45;;;-0.20;99.90;;;;;;5023864;28;20694;-62
2023/01/20 05:39:35;;;;;;;40.45;18.13;;;-0.20;99.90;;;;;;5027996;28;20041;-60
2023/01/20 05:42:01;;;;;;;36.53;17.35;;;-0.20;99.90;;;;;;5026451;28;20049;-60
2023/01/20 05:44:27;;;;;;;36.47;17.23;;;-0.20;99.90;;;;;;5039458;28;20491;-60
2023/01/20 05:46:53;;;;;;;41.40;19.15;;;-0.20;99.90;;;;;;5042211;28;20105;-59
2023/01/20 05:49:19;;;;;;;39.20;17.17;;;-0.20;99.90;;;;;;5016091;28;20165;-60
2023/01/20 05:51:44;;;;;;;43.42;17.77;;;-0.20;99.90;;;;;;5020403;28;20056;-61
2023/01/20 05:54:10;;;;;;;35.38;16.90;;;-0.20;99.90;;;;;;5024881;28;20045;-60
2023/01/20 05:56:36;;;;;;;38.22;17.20;;;-0.20;99.90;;;;;;5023383;28;20047;-60
2023/01/20 05:59:02;;;;;;;35.42;17.75;;;-0.10;99.90;;;;;;5045365;28;20048;-59
2023/01/20 06:01:27;;;;;;;35.95;17.27;;;-0.20;99.90;;;;;;5021587;28;20449;-60
2023/01/20 06:03:53;;;;;;;36.78;17.48;;;-0.20;99.90;;;;;;5041438;28;20091;-60
2023/01/20 06:06:19;;;;;;;33.72;18.02;;;-0.20;99.90;;;;;;5005253;28;20049;-59
2023/01/20 06:08:45;;;;;;;34.15;16.80;;;-0.20;99.90;;;;;;5041517;28;20073;-61
2023/01/20 06:11:13;;;;;;;40.00;18.70;;;-0.20;99.90;;;;;;4995003;28;20068;-59
2023/01/20 06:13:39;;;;;;;37.65;18.65;;;-0.20;99.90;;;;;;5015685;28;20101;-60
2023/01/20 06:16:06;;;;;;;39.17;18.42;;;-0.10;99.90;;;;;;5042599;28;20091;-61
2023/01/20 06:18:33;;;;;;;39.60;18.45;;;-0.10;99.90;;;;;;5041124;28;20037;-60
2023/01/20 06:20:58;;;;;;;42.03;18.70;;;-0.10;99.90;;;;;;5018402;28;20183;-60
2023/01/20 06:23:25;;;;;;;36.70;18.05;;;-0.10;99.90;;;;;;5019810;28;21023;-61
2023/01/20 06:26:06;;;;;;;37.90;17.60;;;-0.10;99.90;;;;;;5041998;28;20052;-60
2023/01/20 06:28:32;;;;;;;44.10;18.92;;;-0.10;99.90;;;;;;5026283;28;20041;-60
2023/01/20 06:31:03;;;;;;;38.42;18.02;;;-0.20;99.90;;;;;;5038036;28;20037;-61
2023/01/20 06:33:29;;;;;;;42.90;18.73;;;-0.10;99.90;;;;;;5022992;28;20041;-60
2023/01/20 06:35:56;;;;;;;41.25;19.83;;;-0.10;99.90;;;;;;5021789;28;20041;-59
2023/01/20 06:38:23;;;;;;;46.58;20.48;;;-0.10;99.90;;;;;;5041397;28;20053;-60
2023/01/20 06:40:49;;;;;;;46.30;19.75;;;-0.10;99.90;;;;;;5037854;28;20052;-59
2023/01/20 06:43:15;;;;;;;45.58;20.25;;;-0.10;99.90;;;;;;5005215;28;20053;-60
2023/01/20 06:45:41;;;;;;;44.75;19.52;;;0.00;99.90;;;;;;5026477;28;20076;-60
2023/01/20 06:48:07;;;;;;;47.10;19.88;;;-0.10;99.90;;;;;;5035348;28;20168;-60
2023/01/20 06:50:32;;;;;;;42.33;20.85;;;-0.10;99.90;;;;;;5046102;28;20044;-60
2023/01/20 06:52:58;;;;;;;41.05;20.33;;;-0.10;99.90;;;;;;5023088;28;20139;-60
2023/01/20 06:55:24;;;;;;;43.60;20.92;;;-0.10;99.90;;;;;;5024989;28;20064;-60
2023/01/20 06:57:50;;;;;;;40.20;19.83;;;-0.10;99.90;;;;;;5049393;28;20037;-60
2023/01/20 07:00:16;;;;;;;45.22;20.83;;;-0.10;99.90;;;;;;5044370;28;20056;-60
2023/01/20 07:02:41;;;;;;;46.45;21.55;;;-0.10;99.90;;;;;;5046019;28;20056;-60
2023/01/20 07:05:09;;;;;;;44.95;21.02;;;-0.10;99.90;;;;;;5043731;28;20658;-60
2023/01/20 07:07:34;;;;;;;42.20;20.80;;;-0.10;99.90;;;;;;5044400;28;20182;-60
2023/01/20 07:10:02;;;;;;;42.30;20.00;;;-0.10;99.90;;;;;;5045807;28;20065;-60
2023/01/20 07:12:28;;;;;;;42.25;20.38;;;-0.10;99.90;;;;;;5037475;28;20055;-60
2023/01/20 07:14:53;;;;;;;39.50;19.70;;;-0.10;99.90;;;;;;5021957;28;20041;-60
2023/01/20 07:17:19;;;;;;;47.22;21.70;;;-0.10;99.90;;;;;;5045572;28;20053;-59
2023/01/20 07:19:45;;;;;;;50.90;21.48;;;0.00;99.90;;;;;;5045186;28;20149;-59
2023/01/20 07:22:11;;;;;;;42.05;20.83;;;-0.10;99.90;;;;;;5045475;28;20083;-59
2023/01/20 07:24:36;;;;;;;43.05;21.63;;;-0.10;99.90;;;;;;5048166;28;20136;-60
2023/01/20 07:27:02;;;;;;;42.25;22.05;;;-0.10;99.90;;;;;;5046736;28;20049;-59
2023/01/20 07:29:28;;;;;;;44.92;21.45;;;-0.10;99.90;;;;;;5044370;28;21609;-60
2023/01/20 07:31:54;;;;;;;46.05;21.45;;;-0.10;99.90;;;;;;5043174;28;20418;-60
2023/01/20 07:34:20;;;;;;;40.40;21.50;;;-0.10;99.90;;;;;;5044954;28;20099;-61
2023/01/20 07:36:46;;;;;;;42.90;20.27;;;0.00;99.90;;;;;;5045379;28;20033;-60
2023/01/20 07:39:13;;;;;;;45.00;20.63;;;-0.10;99.90;;;;;;5027801;28;20072;-60
2023/01/20 07:41:39;;;;;;;43.83;20.63;;;0.00;99.90;;;;;;5048098;28;20044;-60
2023/01/20 07:44:04;;;;;;;42.53;20.92;;;0.00;99.90;;;;;;5028700;28;20053;-59
2023/01/20 07:46:31;;;;;;;43.70;21.45;;;0.00;99.90;;;;;;5044514;28;20502;-60
2023/01/20 07:48:56;;;;;;;43.00;20.92;;;0.00;99.90;;;;;;5045401;28;20124;-61
2023/01/20 07:51:22;;;;;;;45.08;21.77;;;0.00;99.90;;;;;;5047477;28;20125;-60
2023/01/20 07:53:50;;;;;;;48.58;22.60;;;0.00;99.90;;;;;;5046402;28;20029;-60
2023/01/20 07:56:26;;;;;;;46.25;22.27;;;0.00;99.90;;;;;;5045462;28;20416;-60
2023/01/20 07:58:54;;;;;;;46.88;21.35;;;0.00;99.90;;;;;;5043433;28;20044;-60
2023/01/20 08:01:21;;;;;;;43.47;20.63;;;0.10;99.90;;;;;;5041007;28;20106;-60
2023/01/20 08:03:47;;;;;;;46.03;22.25;;;0.00;99.90;;;;;;5045146;28;20033;-60
2023/01/20 08:06:15;;;;;;;46.13;21.90;;;0.00;99.90;;;;;;5043730;28;20219;-60
2023/01/20 08:08:41;;;;;;;50.35;22.65;;;0.00;99.90;;;;;;5003565;28;20170;-60
2023/01/20 08:11:09;;;;;;;47.25;22.05;;;0.00;99.90;;;;;;5025510;28;20068;-60
2023/01/20 08:13:35;;;;;;;46.03;21.95;;;0.00;99.90;;;;;;5044896;28;20041;-59
2023/01/20 08:16:06;;;;;;;45.83;22.67;;;0.10;99.90;;;;;;5043683;28;26232;-60
2023/01/20 08:18:34;;;;;;;44.03;21.50;;;0.10;99.90;;;;;;5021507;28;20053;-60
2023/01/20 08:21:00;;;;;;;44.45;21.98;;;0.10;99.90;;;;;;5043577;28;20130;-60
2023/01/20 08:23:26;;;;;;;44.83;22.73;;;0.10;99.90;;;;;;5043515;28;20068;-59
2023/01/20 08:26:00;;;;;;;47.92;23.23;;;0.10;99.90;;;;;;5044288;28;20056;-59
2023/01/20 08:28:28;;;;;;;43.50;22.45;;;0.10;99.90;;;;;;5041835;28;20446;-60
2023/01/20 08:30:54;;;;;;;46.22;23.70;;;0.10;99.90;;;;;;5025904;28;20487;-60
2023/01/20 08:33:20;;;;;;;46.25;23.15;;;0.10;99.90;;;;;;5017350;28;20075;-60
2023/01/20 08:35:46;;;;;;;45.33;21.75;;;0.10;99.90;;;;;;5005658;28;20036;-59
2023/01/20 08:38:12;;;;;;;47.05;22.52;;;0.20;99.90;;;;;;5043088;28;20048;-59
2023/01/20 08:40:42;;;;;;;47.38;23.10;;;0.20;99.90;;;;;;5044416;28;20036;-60
2023/01/20 08:43:08;;;;;;;49.05;23.88;;;0.20;99.90;;;;;;5031965;28;20048;-59
2023/01/20 08:45:34;;;;;;;46.83;24.02;;;0.20;99.90;;;;;;5042728;28;20373;-59
2023/01/20 08:48:00;;;;;;;49.72;24.80;;;0.30;99.90;;;;;;5015463;28;20048;-61
2023/01/20 08:50:26;;;;;;;44.97;23.30;;;0.30;99.90;;;;;;5043540;28;20037;-59
2023/01/20 08:52:52;;;;;;;48.05;23.35;;;0.30;99.90;;;;;;5026341;28;20136;-59
2023/01/20 08:55:17;;;;;;;45.78;23.35;;;0.30;99.90;;;;;;5045134;28;20041;-61
2023/01/20 08:57:44;;;;;;;48.67;24.35;;;0.30;99.90;;;;;;5045333;28;20493;-59
2023/01/20 09:00:11;;;;;;;49.15;24.38;;;0.30;99.90;;;;;;5023813;28;20141;-59
2023/01/20 09:02:37;;;;;;;48.35;23.73;;;0.30;99.90;;;;;;5043089;28;20112;-60
2023/01/20 09:05:04;;;;;;;50.28;25.92;;;0.30;99.90;;;;;;5043256;28;20120;-59
2023/01/20 09:07:30;;;;;;;48.78;23.92;;;0.30;99.90;;;;;;5044426;28;20136;-59
2023/01/20 09:09:55;;;;;;;48.00;23.92;;;0.40;99.90;;;;;;5033466;28;20115;-60
2023/01/20 09:12:21;;;;;;;49.63;24.50;;;0.40;99.90;;;;;;5044644;28;20124;-60
2023/01/20 09:14:47;;;;;;;52.88;25.77;;;0.40;99.90;;;;;;5015255;28;20052;-59
2023/01/20 09:17:13;;;;;;;54.38;25.40;;;0.40;99.90;;;;;;5043027;28;20029;-61
2023/01/20 09:19:39;;;;;;;49.85;23.80;;;0.40;99.90;;;;;;5039290;28;20052;-60
2023/01/20 09:22:05;;;;;;;48.72;24.27;;;0.40;99.90;;;;;;5035682;28;20055;-61
2023/01/20 09:24:31;;;;;;;51.10;25.05;;;0.50;99.90;;;;;;5036671;28;20048;-61
2023/01/20 09:26:57;;;;;;;47.08;24.40;;;0.50;99.90;;;;;;5042076;28;20052;-60
2023/01/20 09:29:23;;;;;;;52.35;25.83;;;0.50;99.90;;;;;;5044096;28;20428;-60
2023/01/20 09:31:52;;;;;;;47.15;24.48;;;0.50;99.90;;;;;;5043587;28;20052;-59
2023/01/20 09:34:22;;;;;;;59.13;25.73;;;0.50;99.90;;;;;;5023986;28;20124;-60
2023/01/20 09:36:54;;;;;;;49.17;25.25;;;0.50;99.90;;;;;;5023906;28;20119;-60
2023/01/20 09:45:49;;;;;;;55.08;24.50;;;0.60;99.90;;;;;;5005732;28;20790;-59
2023/01/20 09:54:47;;;;;;;48.45;23.55;;;0.60;99.90;;;;;;5041776;28;20506;-60
2023/01/20 09:57:14;;;;;;;48.35;24.42;;;0.50;99.90;;;;;;5043366;28;20085;-61
2023/01/20 09:59:48;;;;;;;56.55;26.65;;;0.60;99.90;;;;;;5019509;28;20057;-60
2023/01/20 10:02:22;;;;;;;49.67;24.63;;;0.70;99.90;;;;;;5016230;28;20064;-60
2023/01/20 10:04:56;;;;;;;50.90;24.02;;;0.70;99.90;;;;;;5040787;28;20041;-61
2023/01/20 10:07:49;;;;;;;51.95;25.13;;;0.70;99.90;;;;;;5025614;28;20068;-61
2023/01/20 10:10:22;;;;;;;50.35;24.55;;;0.70;99.90;;;;;;5045552;28;20070;-60
2023/01/20 10:12:53;;;;;;;54.28;25.08;;;0.70;99.90;;;;;;5044537;28;20356;-60
2023/01/20 10:15:28;;;;;;;53.70;24.98;;;0.70;99.90;;;;;;5032783;28;20052;-60
2023/01/20 10:18:20;;;;;;;54.30;24.83;;;0.70;99.90;;;;;;5035042;28;20041;-60
2023/01/20 10:21:13;;;;;;;53.25;25.05;;;0.80;99.90;;;;;;5020880;28;20053;-60
2023/01/20 10:23:48;;;;;;;59.63;25.98;;;0.80;99.90;;;;;;5040345;28;20053;-59
2023/01/20 10:26:25;;;;;;;56.38;26.08;;;0.80;99.90;;;;;;5045455;28;20488;-60
2023/01/20 10:29:00;;;;;;;53.67;25.17;;;0.80;99.90;;;;;;5045408;28;20048;-60
2023/01/20 10:31:28;;;;;;;53.20;24.42;;;0.80;99.90;;;;;;5046671;28;20064;-60
2023/01/20 10:34:06;;;;;;;55.30;25.65;;;0.80;99.90;;;;;;5027346;28;20068;-61
2023/01/20 10:36:33;;;;;;;56.30;25.70;;;0.80;99.90;;;;;;5038070;28;20142;-59
2023/01/20 10:39:09;;;;;;;56.20;25.30;;;0.80;99.90;;;;;;5012251;28;20111;-61
2023/01/20 10:41:42;;;;;;;54.08;26.17;;;0.80;99.90;;;;;;5021243;28;20037;-60
2023/01/20 10:44:13;;;;;;;51.65;24.90;;;0.90;99.90;;;;;;5039287;28;20644;-60
2023/01/20 10:46:57;;;;;;;59.67;27.50;;;0.80;99.90;;;;;;5042098;28;20041;-60
2023/01/20 10:49:53;;;;;;;56.72;25.98;;;0.90;99.90;;;;;;5043136;28;20037;-61
2023/01/20 10:52:50;;;;;;;49.42;25.10;;;0.90;99.90;;;;;;5029104;28;20049;-60
2023/01/20 10:55:18;;;;;;;61.60;26.13;;;0.90;99.90;;;;;;5044793;28;20041;-61
2023/01/20 10:57:53;;;;;;;54.15;26.30;;;0.90;99.90;;;;;;5010111;28;21113;-60
2023/01/20 11:00:30;;;;;;;53.75;25.67;;;0.90;99.90;;;;;;5042054;28;20061;-60
2023/01/20 11:03:01;;;;;;;53.45;26.10;;;1.00;99.90;;;;;;5044924;28;20153;-60
2023/01/20 11:05:30;;;;;;;56.83;26.23;;;1.00;99.90;;;;;;5045063;28;20047;-60
2023/01/20 11:07:58;;;;;;;55.00;25.98;;;1.00;99.90;;;;;;5028207;28;20048;-61
2023/01/20 11:10:27;;;;;;;52.17;25.92;;;1.00;99.90;;;;;;5048212;28;20033;-60
2023/01/20 11:12:56;;;;;;;57.28;26.50;;;1.10;99.90;;;;;;5046438;28;20643;-60
2023/01/20 11:15:32;;;;;;;56.38;26.60;;;1.00;99.90;;;;;;5027524;28;20049;-60
2023/01/20 11:18:13;;;;;;;55.78;24.48;;;1.00;99.90;;;;;;5032990;28;20437;-60
2023/01/20 11:20:49;;;;;;;46.30;23.13;;;1.20;99.90;;;;;;5044647;28;20178;-60
2023/01/20 11:23:22;;;;;;;49.33;22.77;;;1.00;99.90;;;;;;5044935;28;20499;-61
2023/01/20 11:25:59;;;;;;;52.20;23.65;;;1.00;99.90;;;;;;5042740;28;20060;-60
2023/01/20 11:28:27;;;;;;;54.30;24.63;;;1.00;99.90;;;;;;5041093;28;20123;-61
2023/01/20 11:30:55;;;;;;;55.40;25.25;;;1.00;99.90;;;;;;5023696;28;20114;-59
2023/01/20 11:33:25;;;;;;;55.60;25.70;;;1.10;99.90;;;;;;5026663;28;20106;-60
2023/01/20 11:36:01;;;;;;;49.58;24.15;;;1.10;99.90;;;;;;5042929;28;20140;-61
2023/01/20 11:38:39;;;;;;;51.55;23.27;;;1.10;99.90;;;;;;5044809;28;20114;-60
2023/01/20 11:41:21;;;;;;;53.70;25.35;;;1.10;99.90;;;;;;5026633;28;20051;-60
2023/01/20 11:43:48;;;;;;;52.47;25.35;;;1.10;99.90;;;;;;5045409;28;20052;-60
2023/01/20 11:46:21;;;;;;;58.17;25.77;;;1.20;99.90;;;;;;5044761;28;20155;-60
2023/01/20 11:48:48;;;;;;;54.45;24.52;;;1.20;99.90;;;;;;5039934;28;20045;-60
2023/01/20 11:51:24;;;;;;;59.08;25.92;;;1.20;99.90;;;;;;5042302;28;20176;-61
2023/01/20 11:54:05;;;;;;;48.70;24.02;;;1.30;99.90;;;;;;5026682;28;20101;-61
2023/01/20 11:56:38;;;;;;;50.10;22.88;;;1.20;99.90;;;;;;5019424;28;20554;-60
2023/01/20 11:59:26;;;;;;;47.28;22.83;;;1.30;99.90;;;;;;5026513;28;20125;-61
2023/01/20 12:02:18;;;;;;;47.72;22.25;;;1.20;99.90;;;;;;5046139;28;20062;-61
2023/01/20 12:04:55;;;;;;;43.83;22.02;;;1.20;99.90;;;;;;5042369;28;20033;-61
2023/01/20 12:07:41;;;;;;;50.15;22.45;;;1.20;99.90;;;;;;5046149;28;20041;-60
2023/01/20 12:10:27;;;;;;;47.67;23.63;;;1.10;99.90;;;;;;5045025;28;20506;-60
2023/01/20 12:13:07;;;;;;;49.78;23.65;;;1.10;99.90;;;;;;5027088;28;20053;-60
2023/01/20 12:15:41;;;;;;;50.05;22.15;;;1.20;99.90;;;;;;5040712;28;20044;-60
2023/01/20 12:18:27;;;;;;;48.63;23.42;;;1.10;99.90;;;;;;5014711;28;20590;-60
2023/01/20 12:21:16;;;;;;;49.65;22.42;;;1.10;99.90;;;;;;5026623;28;20056;-61
2023/01/20 12:23:52;;;;;;;49.78;21.92;;;1.10;99.90;;;;;;5025594;28;20049;-60
2023/01/20 12:26:21;;;;;;;46.92;21.88;;;1.10;99.90;;;;;;5041809;28;20495;-61
2023/01/20 12:28:53;;;;;;;50.35;22.55;;;1.10;99.90;;;;;;5015308;28;20534;-59
2023/01/20 12:31:22;;;;;;;48.63;21.95;;;1.10;99.90;;;;;;5044929;28;20041;-61
2023/01/20 12:34:25;;;;;;;46.50;21.98;;;1.10;99.90;;;;;;5025773;28;20056;-59
2023/01/20 12:37:00;;;;;;;48.55;23.63;;;1.20;99.90;;;;;;4996195;28;20070;-60
2023/01/20 12:39:32;;;;;;;48.22;22.98;;;1.20;99.90;;;;;;5013285;28;20115;-61
2023/01/20 12:42:09;;;;;;;53.95;24.13;;;1.20;99.90;;;;;;5044146;28;20448;-60
2023/01/20 12:44:52;;;;;;;47.45;22.92;;;1.20;99.90;;;;;;5023867;28;20048;-61
2023/01/20 12:47:43;;;;;;;51.40;24.38;;;1.30;99.90;;;;;;5045046;28;20445;-60
2023/01/20 12:50:36;;;;;;;50.67;24.23;;;1.30;99.90;;;;;;5024042;28;20395;-61
2023/01/20 12:53:20;;;;;;;50.45;23.05;;;1.30;99.90;;;;;;5045838;28;20270;-60
2023/01/20 12:55:47;;;;;;;49.88;22.48;;;1.30;99.90;;;;;;5026067;28;20045;-60
2023/01/20 12:58:38;;;;;;;49.83;24.98;;;1.30;99.90;;;;;;5023720;28;20475;-59
2023/01/20 13:01:42;;;;;;;52.33;24.23;;;1.30;99.90;;;;;;5007189;28;20493;-61
2023/01/20 13:04:40;;;;;;;49.40;22.88;;;1.20;99.90;;;;;;5019194;28;20067;-60